Armada, Nebraska
Current Conditions -  °F | °C
As of 11:35 PM on Wednesday 26 Nov 2014 (Local Time) from KEAR Reporting Station
Scattered Clouds Scattered Clouds  
Wind Chill: -14°   Ceiling: Unl
Heat Index: -9°   Visibility: 10mi
Dew Point: -11°   Wind: 6mph
Humidity: 86%   Direction: 30°NNE
Pressure: 30.42"   Gusts: NA
Location:  40.9599°N, 99.3688°W
Report Text: KEAR 270535Z 03005KT 10SM SCT120 M09/M11 A3042 RMK AO1
Loading
Personal Weather Stations






























Interactive Weather Map New forecast layout! Learn more

10-Day Weather Forecast

Advertisements
Track Severe Weather on mobile